Paris, Illinois
Current Conditions -  °F | °C
As of 11:55 PM on Sunday 19 Oct 2014 (Local Time) from KPRG Reporting Station
Broken Clouds Broken Clouds  
Wind Chill: 47°   Ceiling: 9500
Heat Index: 49°   Visibility: 10mi
Dew Point: 45°   Wind: 5mph
Humidity: 86%   Direction: 190°S
Pressure: 30.02"   Gusts: NA
Location:  39.61°N, 87.69°W
Report Text: KPRG 200455Z AUTO 19004KT 10SM BKN095 09/07 A3002 RMK AO2 T00920070
Loading
Personal Weather Stations






























Interactive Weather Map
Tropical Storm Tracking
New forecast layout! Learn more

10-Day Weather Forecast

Advertisements
Track Severe Weather on mobile